createdAt,value
2022-12-18T00:01:17.309Z,90.63
2022-12-18T00:03:38.777Z,93.07
2022-12-18T00:06:00.010Z,86.53
2022-12-18T00:08:21.538Z,86.23
2022-12-18T00:10:42.327Z,90.20
2022-12-18T00:13:06.636Z,82.53
2022-12-18T00:15:32.326Z,90.83
2022-12-18T00:17:53.254Z,93.50
2022-12-18T00:20:14.651Z,85.17
2022-12-18T00:22:36.103Z,85.97
2022-12-18T00:24:57.011Z,83.23
2022-12-18T00:27:18.540Z,84.47
2022-12-18T00:29:39.978Z,81.03
2022-12-18T00:32:02.477Z,74.80
2022-12-18T00:34:23.647Z,74.60
2022-12-18T00:36:45.011Z,75.10
2022-12-18T00:39:06.962Z,74.20
2022-12-18T00:41:46.009Z,71.30
2022-12-18T00:44:08.148Z,70.17
2022-12-18T00:46:29.141Z,70.33
2022-12-18T00:48:51.850Z,67.40
2022-12-18T00:51:13.206Z,68.00
2022-12-18T00:53:34.702Z,72.00
2022-12-18T00:55:56.048Z,68.17
2022-12-18T00:58:18.156Z,79.53
2022-12-18T01:00:39.351Z,80.80
2022-12-18T01:03:00.916Z,79.20
2022-12-18T01:05:23.197Z,90.70
2022-12-18T01:07:44.347Z,81.37
2022-12-18T01:10:06.623Z,81.47
2022-12-18T01:12:27.881Z,71.07
2022-12-18T01:14:49.210Z,71.87
2022-12-18T01:17:10.261Z,78.87
2022-12-18T01:19:31.691Z,97.17
2022-12-18T01:21:53.866Z,85.80
2022-12-18T01:24:15.733Z,82.37
2022-12-18T01:26:37.089Z,99.60
2022-12-18T01:28:58.958Z,92.37
2022-12-18T01:31:21.703Z,78.00
2022-12-18T01:33:43.294Z,81.07
2022-12-18T01:36:04.778Z,100.00
2022-12-18T01:38:27.568Z,82.83
2022-12-18T01:40:48.606Z,78.10
2022-12-18T01:43:11.027Z,82.50
2022-12-18T01:45:32.671Z,76.20
2022-12-18T01:47:54.774Z,86.77
2022-12-18T01:50:16.948Z,78.87
2022-12-18T01:52:42.215Z,75.47
2022-12-18T01:55:06.769Z,84.80
2022-12-18T01:57:29.039Z,93.73
2022-12-18T01:59:52.486Z,76.83
2022-12-18T02:02:13.872Z,82.07
2022-12-18T02:04:34.946Z,88.63
2022-12-18T02:07:01.814Z,99.33
2022-12-18T02:09:27.324Z,98.70
2022-12-18T02:11:54.926Z,80.10
2022-12-18T02:14:20.397Z,86.17
2022-12-18T02:16:44.870Z,103.73
2022-12-18T02:19:08.510Z,96.03
2022-12-18T02:21:34.807Z,74.50
2022-12-18T02:23:58.965Z,73.27
2022-12-18T02:26:24.047Z,70.83
2022-12-18T02:28:47.729Z,77.93
2022-12-18T02:31:11.408Z,67.00
2022-12-18T02:33:33.069Z,73.43
2022-12-18T02:35:55.926Z,89.87
2022-12-18T02:38:17.730Z,69.93
2022-12-18T02:40:39.267Z,70.73
2022-12-18T02:43:08.911Z,83.33
2022-12-18T02:45:30.209Z,65.33
2022-12-18T02:47:51.693Z,74.57
2022-12-18T02:50:22.393Z,67.47
2022-12-18T02:52:45.277Z,69.37
2022-12-18T02:55:15.228Z,76.03
2022-12-18T02:57:38.912Z,74.83
2022-12-18T03:00:03.973Z,66.57
2022-12-18T03:02:29.169Z,64.30
2022-12-18T03:04:52.741Z,64.33
2022-12-18T03:07:17.604Z,61.90
2022-12-18T03:09:40.328Z,61.47
2022-12-18T03:12:22.728Z,61.67
2022-12-18T03:14:45.431Z,63.93
2022-12-18T03:17:09.929Z,67.13
2022-12-18T03:19:33.398Z,63.07
2022-12-18T03:21:56.369Z,69.57
2022-12-18T03:24:17.978Z,75.63
2022-12-18T03:26:40.646Z,68.70
2022-12-18T03:29:05.341Z,69.07
2022-12-18T03:31:28.302Z,69.47
2022-12-18T03:33:53.565Z,76.87
2022-12-18T03:36:14.660Z,106.43
2022-12-18T03:38:36.022Z,63.30
2022-12-18T03:41:01.926Z,63.30
2022-12-18T03:43:29.374Z,65.33
2022-12-18T03:45:53.199Z,66.90
2022-12-18T03:48:18.143Z,69.03
2022-12-18T03:50:47.321Z,64.47
2022-12-18T03:53:16.247Z,66.87
2022-12-18T03:55:38.033Z,66.17
2022-12-18T03:57:59.942Z,64.60
2022-12-18T04:00:21.983Z,71.93
2022-12-18T04:02:45.385Z,74.10
2022-12-18T04:05:08.302Z,66.83
2022-12-18T04:07:30.946Z,75.13
2022-12-18T04:09:53.935Z,80.17
2022-12-18T04:12:15.097Z,74.87
2022-12-18T04:14:36.840Z,77.30
2022-12-18T04:16:58.173Z,68.77
2022-12-18T04:19:19.534Z,72.60
2022-12-18T04:21:40.968Z,74.77
2022-12-18T04:24:03.759Z,63.70
2022-12-18T04:26:25.173Z,62.80
2022-12-18T04:28:46.267Z,61.50
2022-12-18T04:31:07.604Z,68.03
2022-12-18T04:33:28.738Z,59.50
2022-12-18T04:35:49.961Z,61.03
2022-12-18T04:38:11.860Z,64.13
2022-12-18T04:40:36.629Z,63.10
2022-12-18T04:42:57.960Z,65.53
2022-12-18T04:45:19.353Z,60.83
2022-12-18T04:47:40.450Z,59.53
2022-12-18T04:50:01.805Z,61.57
2022-12-18T04:52:25.750Z,63.73
2022-12-18T04:54:46.993Z,56.10
2022-12-18T04:57:09.734Z,59.63
2022-12-18T04:59:31.190Z,64.33
2022-12-18T05:01:52.195Z,63.30
2022-12-18T05:04:13.408Z,58.27
2022-12-18T05:06:34.717Z,54.43
2022-12-18T05:08:55.973Z,53.73
2022-12-18T05:11:17.739Z,55.90
2022-12-18T05:13:41.365Z,54.60
2022-12-18T05:16:03.557Z,56.13
2022-12-18T05:18:25.616Z,51.60
2022-12-18T05:20:47.019Z,52.73
2022-12-18T05:23:08.294Z,58.90
2022-12-18T05:25:29.890Z,56.83
2022-12-18T05:27:51.596Z,57.27
2022-12-18T05:30:14.837Z,52.10
2022-12-18T05:32:36.046Z,52.00
2022-12-18T05:34:58.224Z,55.73
2022-12-18T05:37:19.262Z,55.57
2022-12-18T05:39:40.572Z,54.43
2022-12-18T05:42:02.862Z,53.17
2022-12-18T05:44:23.764Z,53.17
2022-12-18T05:46:46.617Z,50.50
2022-12-18T05:49:08.266Z,49.20
2022-12-18T05:51:29.900Z,53.70
2022-12-18T05:53:50.993Z,55.67
2022-12-18T05:56:13.069Z,58.03
2022-12-18T05:58:34.526Z,54.97
2022-12-18T06:00:55.873Z,56.07
2022-12-18T06:03:18.792Z,53.47
2022-12-18T06:05:40.391Z,53.27
2022-12-18T06:08:01.498Z,56.60
2022-12-18T06:10:22.629Z,53.00
2022-12-18T06:12:44.063Z,53.90
2022-12-18T06:15:05.554Z,53.10
2022-12-18T06:17:29.941Z,48.07
2022-12-18T06:19:52.298Z,60.13
2022-12-18T06:22:13.674Z,55.10
2022-12-18T06:24:35.134Z,54.87
2022-12-18T06:26:56.488Z,58.87
2022-12-18T06:29:17.760Z,53.30
2022-12-18T06:31:39.112Z,51.73
2022-12-18T06:34:00.284Z,49.90
2022-12-18T06:36:24.057Z,58.57
2022-12-18T06:38:45.783Z,56.37
2022-12-18T06:41:08.440Z,55.47
2022-12-18T06:43:29.673Z,58.30
2022-12-18T06:45:53.547Z,60.70
2022-12-18T06:48:14.850Z,58.57
2022-12-18T06:50:36.246Z,57.67
2022-12-18T06:52:58.792Z,59.90
2022-12-18T06:55:21.135Z,56.83
2022-12-18T06:57:42.311Z,50.43
2022-12-18T07:00:04.013Z,53.73
2022-12-18T07:02:25.124Z,57.23
2022-12-18T07:04:46.415Z,56.30
2022-12-18T07:07:07.822Z,55.67
2022-12-18T07:09:30.571Z,50.03
2022-12-18T07:11:51.615Z,56.33
2022-12-18T07:14:12.922Z,58.07
2022-12-18T07:16:34.331Z,57.20
2022-12-18T07:18:56.475Z,56.10
2022-12-18T07:21:20.691Z,57.73
2022-12-18T07:23:42.006Z,51.30
2022-12-18T07:26:05.966Z,57.47
2022-12-18T07:28:26.974Z,53.40
2022-12-18T07:30:48.649Z,54.60
2022-12-18T07:33:10.156Z,60.60
2022-12-18T07:35:31.441Z,55.10
2022-12-18T07:37:52.668Z,50.53
2022-12-18T07:40:14.227Z,52.13
2022-12-18T07:42:37.932Z,55.87
2022-12-18T07:44:59.644Z,56.00
2022-12-18T07:47:20.701Z,55.87
2022-12-18T07:49:42.174Z,55.83
2022-12-18T07:52:03.587Z,60.77
2022-12-18T07:54:25.281Z,56.87
2022-12-18T07:56:46.662Z,57.20
2022-12-18T07:59:09.179Z,56.67
2022-12-18T08:01:30.701Z,59.40
2022-12-18T08:03:52.721Z,55.77
2022-12-18T08:06:14.021Z,55.67
2022-12-18T08:08:36.204Z,57.57
2022-12-18T08:10:57.801Z,55.93
2022-12-18T08:13:18.797Z,54.00
2022-12-18T08:15:41.293Z,52.33
2022-12-18T08:18:02.440Z,50.70
2022-12-18T08:20:23.852Z,46.87
2022-12-18T08:22:45.223Z,53.87
2022-12-18T08:25:07.205Z,54.43
2022-12-18T08:27:29.685Z,53.17
2022-12-18T08:29:51.230Z,51.87
2022-12-18T08:32:14.151Z,49.80
2022-12-18T08:34:35.798Z,51.83
2022-12-18T08:36:56.912Z,49.93
2022-12-18T08:39:18.007Z,53.47
2022-12-18T08:41:39.360Z,52.07
2022-12-18T08:44:18.663Z,48.13
2022-12-18T08:46:40.800Z,50.07
2022-12-18T08:49:03.597Z,53.27
2022-12-18T08:51:24.904Z,50.30
2022-12-18T08:53:46.622Z,51.50
2022-12-18T08:56:08.214Z,56.80
2022-12-18T08:58:29.146Z,56.17
2022-12-18T09:00:50.563Z,49.73
2022-12-18T09:03:13.044Z,49.73
2022-12-18T09:05:35.458Z,51.80
2022-12-18T09:07:57.296Z,51.93
2022-12-18T09:10:18.523Z,48.87
2022-12-18T09:12:40.209Z,49.00
2022-12-18T09:15:01.388Z,47.80
2022-12-18T09:17:22.598Z,47.00
2022-12-18T09:19:44.269Z,46.50
2022-12-18T09:22:06.927Z,48.50
2022-12-18T09:24:28.264Z,50.60
2022-12-18T09:26:51.549Z,49.70
2022-12-18T09:29:16.791Z,50.37
2022-12-18T09:31:40.264Z,51.23
2022-12-18T09:34:01.488Z,43.93
2022-12-18T09:36:22.623Z,43.53
2022-12-18T09:38:45.452Z,43.67
2022-12-18T09:41:07.496Z,52.57
2022-12-18T09:43:31.369Z,50.43
2022-12-18T09:45:53.696Z,54.27
2022-12-18T09:48:17.606Z,49.80
2022-12-18T09:50:41.106Z,52.93
2022-12-18T09:53:07.775Z,58.80
2022-12-18T09:55:37.184Z,59.60
2022-12-18T09:58:01.208Z,58.33
2022-12-18T10:00:23.501Z,57.30
2022-12-18T10:02:44.730Z,54.97
2022-12-18T10:05:11.501Z,56.73
2022-12-18T10:07:36.978Z,55.63
2022-12-18T10:10:03.042Z,57.90
2022-12-18T10:12:29.712Z,52.67
2022-12-18T10:14:55.698Z,56.07
2022-12-18T10:17:21.528Z,52.57
2022-12-18T10:19:50.054Z,52.63
2022-12-18T10:22:20.632Z,52.60
2022-12-18T10:24:44.531Z,55.47
2022-12-18T10:27:13.081Z,60.13
2022-12-18T10:29:35.661Z,57.00
2022-12-18T10:31:57.010Z,53.23
2022-12-18T10:34:18.281Z,54.67
2022-12-18T10:36:39.768Z,53.80
2022-12-18T10:39:15.777Z,52.67
2022-12-18T10:41:37.139Z,56.57
2022-12-18T10:44:13.694Z,56.43
2022-12-18T10:46:36.792Z,60.40
2022-12-18T10:48:58.778Z,53.93
2022-12-18T10:51:25.324Z,57.07
2022-12-18T10:53:53.469Z,58.90
2022-12-18T10:56:14.607Z,58.00
2022-12-18T10:58:36.554Z,52.50
2022-12-18T11:01:08.500Z,59.27
2022-12-18T11:03:33.358Z,61.73
2022-12-18T11:06:03.387Z,62.67
2022-12-18T11:08:24.685Z,67.47
2022-12-18T11:10:48.865Z,70.37
2022-12-18T11:13:14.569Z,69.27
2022-12-18T11:15:35.745Z,62.60
2022-12-18T11:17:57.218Z,72.07
2022-12-18T11:20:25.716Z,62.17
2022-12-18T11:22:56.252Z,69.10
2022-12-18T11:25:33.233Z,61.60
2022-12-18T11:27:56.717Z,58.83
2022-12-18T11:30:23.280Z,61.63
2022-12-18T11:32:45.799Z,61.63
2022-12-18T11:35:14.659Z,61.83
2022-12-18T11:37:37.575Z,59.80
2022-12-18T11:40:00.785Z,56.73
2022-12-18T11:42:25.088Z,60.67
2022-12-18T11:44:49.549Z,61.77
2022-12-18T11:47:15.653Z,61.87
2022-12-18T11:49:37.793Z,58.77
2022-12-18T11:52:02.667Z,57.97
2022-12-18T11:54:25.107Z,59.27
2022-12-18T11:56:48.472Z,58.77
2022-12-18T11:59:14.873Z,58.27
2022-12-18T12:01:44.279Z,60.87
2022-12-18T12:04:23.661Z,59.67
2022-12-18T12:06:50.367Z,57.37
2022-12-18T12:09:16.265Z,55.93
2022-12-18T12:11:46.389Z,59.30
2022-12-18T12:14:17.978Z,60.63
2022-12-18T12:16:41.458Z,57.83
2022-12-18T12:19:05.937Z,64.43
2022-12-18T12:21:29.908Z,66.87
2022-12-18T12:23:55.426Z,67.70
2022-12-18T12:26:19.191Z,57.30
2022-12-18T12:28:56.963Z,61.63
2022-12-18T12:31:23.539Z,59.77
2022-12-18T12:33:50.291Z,62.00
2022-12-18T12:36:16.473Z,58.90
2022-12-18T12:38:39.002Z,56.50
2022-12-18T12:41:03.424Z,59.27
2022-12-18T12:43:26.779Z,61.67
2022-12-18T12:45:51.289Z,67.73
2022-12-18T12:48:16.127Z,60.20
2022-12-18T12:50:39.535Z,61.80
2022-12-18T12:53:01.600Z,64.40
2022-12-18T12:55:24.444Z,63.47
2022-12-18T12:57:48.300Z,63.10
2022-12-18T13:00:11.381Z,63.33
2022-12-18T13:02:37.822Z,59.53
2022-12-18T13:05:03.845Z,59.57
2022-12-18T13:07:28.313Z,59.27
2022-12-18T13:10:09.740Z,62.80
2022-12-18T13:12:49.997Z,63.00
2022-12-18T13:15:21.843Z,62.17
2022-12-18T13:17:44.204Z,62.20
2022-12-18T13:20:10.011Z,61.63
2022-12-18T13:22:33.710Z,59.57
2022-12-18T13:24:55.168Z,57.57
2022-12-18T13:27:31.686Z,61.37
2022-12-18T13:29:52.808Z,78.47
2022-12-18T13:32:23.717Z,63.73
2022-12-18T13:34:47.127Z,56.80
2022-12-18T13:37:42.340Z,56.07
2022-12-18T13:40:03.964Z,52.00
2022-12-18T13:42:57.258Z,49.60
2022-12-18T13:45:36.684Z,43.50
2022-12-18T13:47:58.242Z,43.50
2022-12-18T13:50:24.166Z,41.53
2022-12-18T13:52:45.503Z,41.23
2022-12-18T13:55:08.767Z,43.47
2022-12-18T13:57:30.981Z,52.70
2022-12-18T13:59:53.558Z,55.17
2022-12-18T14:02:16.387Z,56.80
2022-12-18T14:04:38.982Z,58.50
2022-12-18T14:07:04.947Z,59.73
2022-12-18T14:09:28.095Z,62.50
2022-12-18T14:11:51.750Z,53.57
2022-12-18T14:14:15.397Z,54.90
2022-12-18T14:16:38.659Z,58.77
2022-12-18T14:19:04.408Z,55.77
2022-12-18T14:21:34.169Z,56.73
2022-12-18T14:24:07.485Z,59.80
2022-12-18T14:26:30.285Z,55.93
2022-12-18T14:28:51.861Z,56.00
2022-12-18T14:31:19.448Z,60.60
2022-12-18T14:33:41.087Z,58.03
2022-12-18T14:36:03.719Z,59.57
2022-12-18T14:38:26.432Z,53.33
2022-12-18T14:40:48.913Z,54.13
2022-12-18T14:43:11.172Z,62.63
2022-12-18T14:45:40.923Z,59.63
2022-12-18T14:48:02.571Z,60.90
2022-12-18T14:50:24.182Z,59.27
2022-12-18T14:52:45.205Z,57.87
2022-12-18T14:55:06.859Z,62.90
2022-12-18T14:57:32.778Z,54.37
2022-12-18T14:59:54.335Z,55.00
2022-12-18T15:02:20.644Z,55.47
2022-12-18T15:04:44.552Z,60.07
2022-12-18T15:07:14.566Z,58.57
2022-12-18T15:09:36.607Z,59.87
2022-12-18T15:11:58.305Z,60.03
2022-12-18T15:14:32.826Z,57.50
2022-12-18T15:16:55.147Z,55.43
2022-12-18T15:19:18.329Z,53.53
2022-12-18T15:21:44.511Z,53.67
2022-12-18T15:24:06.423Z,54.03
2022-12-18T15:26:27.790Z,58.13
2022-12-18T15:28:50.723Z,62.83
2022-12-18T15:31:24.398Z,56.47
2022-12-18T15:33:47.112Z,54.07
2022-12-18T15:36:11.019Z,63.93
2022-12-18T15:38:32.793Z,61.97
2022-12-18T15:40:54.215Z,50.07
2022-12-18T15:43:32.834Z,49.10
2022-12-18T15:45:54.064Z,49.57
2022-12-18T15:48:21.449Z,53.03
2022-12-18T15:50:42.725Z,48.77
2022-12-18T15:53:04.143Z,65.17
2022-12-18T15:55:44.437Z,54.60
2022-12-18T15:58:05.928Z,55.33
2022-12-18T16:00:26.984Z,64.70
2022-12-18T16:02:48.149Z,69.47
2022-12-18T16:05:15.756Z,67.37
2022-12-18T16:07:36.796Z,59.93
2022-12-18T16:09:58.933Z,58.63
2022-12-18T16:12:23.934Z,61.43
2022-12-18T16:14:45.579Z,64.17
2022-12-18T16:17:08.074Z,58.27
2022-12-18T16:19:29.278Z,60.63
2022-12-18T16:21:52.822Z,61.73
2022-12-18T16:24:16.104Z,61.53
2022-12-18T16:26:37.222Z,62.33
2022-12-18T16:28:58.546Z,57.10
2022-12-18T16:31:19.832Z,57.80
2022-12-18T16:33:41.462Z,54.97
2022-12-18T16:36:03.328Z,49.20
2022-12-18T16:38:25.771Z,46.90
2022-12-18T16:41:00.938Z,46.77
2022-12-18T16:43:21.861Z,50.67
2022-12-18T16:45:44.245Z,49.70
2022-12-18T16:48:05.493Z,52.63
2022-12-18T16:50:26.346Z,48.07
2022-12-18T16:52:47.511Z,54.47
2022-12-18T16:55:10.660Z,52.17
2022-12-18T16:57:31.701Z,44.30
2022-12-18T16:59:53.283Z,49.57
2022-12-18T17:02:15.791Z,47.93
2022-12-18T17:04:38.395Z,47.03
2022-12-18T17:06:59.651Z,45.17
2022-12-18T17:09:23.662Z,46.13
2022-12-18T17:11:46.022Z,48.30
2022-12-18T17:14:07.885Z,51.57
2022-12-18T17:16:28.884Z,50.60
2022-12-18T17:18:50.759Z,42.33
2022-12-18T17:21:13.421Z,42.83
2022-12-18T17:23:34.522Z,47.10
2022-12-18T17:25:56.381Z,44.47
2022-12-18T17:28:19.032Z,50.17
2022-12-18T17:30:40.406Z,46.07
2022-12-18T17:33:01.695Z,47.30
2022-12-18T17:35:22.963Z,46.30
2022-12-18T17:37:44.388Z,50.87
2022-12-18T17:40:06.625Z,47.27
2022-12-18T17:42:28.023Z,46.77
2022-12-18T17:44:50.546Z,48.10
2022-12-18T17:47:12.179Z,49.23
2022-12-18T17:49:33.574Z,52.23
2022-12-18T17:51:54.925Z,55.60
2022-12-18T17:54:15.934Z,56.30
2022-12-18T17:56:36.987Z,51.53
2022-12-18T17:58:59.170Z,50.83
2022-12-18T18:01:23.007Z,50.27
2022-12-18T18:03:45.343Z,62.33
2022-12-18T18:06:08.570Z,60.60
2022-12-18T18:08:29.910Z,154.90
2022-12-18T18:10:51.435Z,89.60
2022-12-18T18:13:42.046Z,171.13
2022-12-18T18:16:07.735Z,179.23
2022-12-18T18:18:30.435Z,98.00
2022-12-18T18:20:51.487Z,169.70
2022-12-18T18:23:15.436Z,321.83
2022-12-18T18:25:37.131Z,128.67
2022-12-18T18:27:58.125Z,122.60
2022-12-18T18:30:19.626Z,103.87
2022-12-18T18:32:41.141Z,83.00
2022-12-18T18:35:03.913Z,71.13
2022-12-18T18:37:25.173Z,75.43
2022-12-18T18:39:46.400Z,68.87
2022-12-18T18:42:07.570Z,56.97
2022-12-18T18:44:29.062Z,63.77
2022-12-18T18:46:50.135Z,54.47
2022-12-18T18:49:11.793Z,55.60
2022-12-18T18:51:35.191Z,53.57
2022-12-18T18:53:56.650Z,54.40
2022-12-18T18:59:01.865Z,54.50
2022-12-18T19:01:23.569Z,61.33
2022-12-18T19:03:45.760Z,54.10
2022-12-18T19:06:07.683Z,55.27
2022-12-18T19:08:31.228Z,51.90
2022-12-18T19:10:57.633Z,54.20
2022-12-18T19:13:21.288Z,62.50
2022-12-18T19:15:42.332Z,59.93
2022-12-18T19:18:03.751Z,58.20
2022-12-18T19:20:24.803Z,48.87
2022-12-18T19:22:54.924Z,54.23
2022-12-18T19:25:18.402Z,53.87
2022-12-18T19:27:40.093Z,58.30
2022-12-18T19:30:01.107Z,53.03
2022-12-18T19:32:22.327Z,53.33
2022-12-18T19:34:43.582Z,51.20
2022-12-18T19:37:06.714Z,50.07
2022-12-18T19:39:27.983Z,48.17
2022-12-18T19:41:51.846Z,47.00
2022-12-18T19:44:13.736Z,47.37
2022-12-18T19:46:35.256Z,44.70
2022-12-18T19:48:56.364Z,46.23
2022-12-18T19:51:18.424Z,49.90
2022-12-18T19:53:39.495Z,51.47
2022-12-18T19:56:05.682Z,47.73
2022-12-18T19:58:27.973Z,42.87
2022-12-18T20:00:48.988Z,49.43
2022-12-18T20:03:23.303Z,48.73
2022-12-18T20:05:48.405Z,53.87
2022-12-18T20:08:09.799Z,57.77
2022-12-18T20:10:32.167Z,51.13
2022-12-18T20:12:53.468Z,55.57
2022-12-18T20:15:17.155Z,54.27
2022-12-18T20:17:39.328Z,56.07
2022-12-18T20:20:00.408Z,49.03
2022-12-18T20:22:21.784Z,52.50
2022-12-18T20:24:42.828Z,47.47
2022-12-18T20:27:04.071Z,54.10
2022-12-18T20:29:25.337Z,54.17
2022-12-18T20:31:48.015Z,53.93
2022-12-18T20:34:09.373Z,53.97
2022-12-18T20:36:30.744Z,50.97
2022-12-18T20:38:59.158Z,50.80
2022-12-18T20:41:22.481Z,50.03
2022-12-18T20:43:44.728Z,50.27
2022-12-18T20:46:07.073Z,50.73
2022-12-18T20:48:29.956Z,50.60
2022-12-18T20:50:58.129Z,47.73
2022-12-18T20:53:21.341Z,48.27
2022-12-18T20:55:43.119Z,51.83
2022-12-18T20:58:04.108Z,50.40
2022-12-18T21:00:25.327Z,52.93
2022-12-18T21:02:46.725Z,53.93
2022-12-18T21:05:09.670Z,49.87
2022-12-18T21:07:30.677Z,58.70
2022-12-18T21:09:51.955Z,54.97
2022-12-18T21:12:35.053Z,59.40
2022-12-18T21:15:10.444Z,56.20
2022-12-18T21:17:32.752Z,52.27
2022-12-18T21:19:59.867Z,51.83
2022-12-18T21:22:22.571Z,50.27
2022-12-18T21:24:43.686Z,50.53
2022-12-18T21:27:05.162Z,51.37
2022-12-18T21:29:27.164Z,49.43
2022-12-18T21:31:48.377Z,55.27
2022-12-18T21:34:11.998Z,60.90
2022-12-18T21:36:33.542Z,57.13
2022-12-18T21:38:56.352Z,55.43
2022-12-18T21:41:31.778Z,60.93
2022-12-18T21:44:08.322Z,60.10
2022-12-18T21:46:29.462Z,64.83
2022-12-18T21:48:51.070Z,59.20
2022-12-18T21:51:12.310Z,57.20
2022-12-18T21:53:33.555Z,57.17
2022-12-18T21:55:59.794Z,55.83
2022-12-18T21:58:21.150Z,56.47
2022-12-18T22:00:46.967Z,54.80
2022-12-18T22:03:18.289Z,51.00
2022-12-18T22:05:40.230Z,59.10
2022-12-18T22:08:02.044Z,57.87
2022-12-18T22:10:23.479Z,54.00
2022-12-18T22:12:46.024Z,53.13
2022-12-18T22:15:07.681Z,54.07
2022-12-18T22:17:28.789Z,59.57
2022-12-18T22:19:50.416Z,57.63
2022-12-18T22:22:11.601Z,59.33
2022-12-18T22:24:32.948Z,56.53
2022-12-18T22:26:58.429Z,55.67
2022-12-18T22:29:43.019Z,72.60
2022-12-18T22:32:05.003Z,114.43
2022-12-18T22:34:26.390Z,76.93
2022-12-18T22:36:48.592Z,58.93
2022-12-18T22:39:11.275Z,56.43
2022-12-18T22:41:32.615Z,57.87
2022-12-18T22:43:53.892Z,56.23
2022-12-18T22:46:18.333Z,58.97
2022-12-18T22:48:39.886Z,61.47
2022-12-18T22:51:01.110Z,63.27
2022-12-18T22:53:22.318Z,82.13
2022-12-18T22:55:43.630Z,104.90
2022-12-18T22:58:04.944Z,133.97
2022-12-18T23:00:26.358Z,77.00
2022-12-18T23:02:48.838Z,59.23
2022-12-18T23:05:10.631Z,57.67
2022-12-18T23:07:31.682Z,71.57
2022-12-18T23:10:00.882Z,64.60
2022-12-18T23:12:22.367Z,62.53
2022-12-18T23:14:43.922Z,56.23
2022-12-18T23:17:04.978Z,60.60
2022-12-18T23:19:27.675Z,59.13
2022-12-18T23:21:49.224Z,59.27
2022-12-18T23:24:10.350Z,58.13
2022-12-18T23:26:31.699Z,54.90
2022-12-18T23:28:53.454Z,56.57
2022-12-18T23:31:15.437Z,59.20
2022-12-18T23:33:37.986Z,70.07
2022-12-18T23:36:01.714Z,74.87
2022-12-18T23:38:22.788Z,58.17
2022-12-18T23:40:44.241Z,57.33
2022-12-18T23:43:07.434Z,60.13
2022-12-18T23:45:28.793Z,57.63
2022-12-18T23:47:51.033Z,56.73
2022-12-18T23:50:12.220Z,58.77
2022-12-18T23:52:34.763Z,58.33
2022-12-18T23:54:56.319Z,55.70
2022-12-18T23:57:17.524Z,55.13
2022-12-18T23:59:40.954Z,63.47
